Terminal Aerodrome Forecast
Issued by NWS

Home | Current Version | Previous Version | Graphics & Text | Print | Product List | Glossary On
Versions: 1 2 3 4 5 6 7 8 9 10 11 12 13 14 15 16 17 18 19
000
FTUS43 KICT 301100
TAFRSL
TAF
KRSL 301130Z 3012/3112 VRB06KT P6SM FEW200
     FM301800 18013KT P6SM SCT100
     FM310200 16008KT P6SM SKC
     FM310900 19011KT P6SM SCT100 BKN200=

USA.gov is the U.S. government's official web portal to all federal, state and local government web resources and services.